FW4584 Weather Reports


Display with metric or nautical units.
time (UTC)temp
F
wind
direction
speed
MPH
gust
MPH
rain 1hr
in
rain 24hr
in
rain mn
in
humidity
%
barometer
mb
20190425163421 63 340 14.0 22.0 0.00 0.00 0.00 40 1007.8
20190425162521 62 330 11.0 15.0 0.00 0.00 0.00 44 1007.9
20190425161621 61 332 9.0 12.0 0.00 0.00 0.00 47 1007.9
20190425160721 60 327 9.0 13.0 0.00 0.00 0.00 49 1007.8
20190425155821 60 337 9.0 13.0 0.00 0.00 0.00 54 1007.8
20190425154921 60 336 9.0 13.0 0.00 0.00 0.00 53 1007.7
20190425154021 59 342 11.0 15.0 0.00 0.00 0.00 53 1007.7
20190425153121 59 338 10.0 13.0 0.00 0.00 0.00 54 1007.6
20190425152221 58 342 9.0 12.0 0.00 0.00 0.00 55 1007.5
20190425151321 58 341 10.0 12.0 0.00 0.00 0.00 54 1007.5
20190425150421 58 345 9.0 13.0 0.00 0.00 0.00 56 1007.6
20190425145521 57 342 9.0 12.0 0.00 0.00 0.00 57 1007.4
20190425144621 57 345 9.0 12.0 0.00 0.00 0.00 56 1007.5
20190425143721 56 346 8.0 11.0 0.00 0.00 0.00 58 1007.4
20190425142821 56 345 9.0 14.0 0.00 0.00 0.00 59 1007.4
20190425141921 56 335 9.0 12.0 0.00 0.00 0.00 59 1007.5
20190425141020 56 336 9.0 14.0 0.00 0.00 0.00 58 1007.5
20190425140120 55 337 9.0 12.0 0.00 0.00 0.00 60 1007.3
20190425135221 55 338 9.0 12.0 0.00 0.00 0.00 59 1007.2
20190425134320 55 338 10.0 13.0 0.00 0.00 0.00 59 1007.2
20190425133421 55 335 10.0 13.0 0.00 0.00 0.00 59 1007.2
20190425132521 55 336 9.0 11.0 0.00 0.00 0.00 60 1007.0
20190425131621 55 334 8.0 11.0 0.00 0.00 0.00 60 1006.8
20190425130721 55 330 7.0 10.0 0.00 0.00 0.00 60 1006.8
20190425125820 55 333 8.0 12.0 0.00 0.00 0.00 60 1006.7
20190425124921 55 331 7.0 12.0 0.00 0.00 0.00 58 1006.7
20190425124020 55 339 8.0 11.0 0.00 0.00 0.00 59 1006.6
20190425123120 56 349 7.0 11.0 0.00 0.00 0.00 59 1006.5
20190425122220 56 344 6.0 9.0 0.00 0.00 0.00 59 1006.5
20190425121320 56 349 4.0 8.0 0.00 0.00 0.00 58 1006.4
20190425120420 56 336 5.0 8.0 0.00 0.00 0.00 58 1006.4
20190425115520 56 321 5.0 9.0 0.00 0.00 0.00 58 1006.4
20190425114620 57 322 5.0 9.0 0.00 0.00 0.00 58 1006.3
20190425113720 57 332 8.0 11.0 0.00 0.00 0.00 55 1006.1
20190425112820 57 335 9.0 12.0 0.00 0.00 0.00 56 1006.0
20190425111920 58 336 10.0 12.0 0.00 0.00 0.00 54 1005.9
20190425111020 58 336 11.0 14.0 0.00 0.00 0.00 54 1005.7
20190425110120 58 314 6.0 11.0 0.00 0.00 0.00 55 1005.5
20190425105220 58 310 7.0 9.0 0.00 0.00 0.00 57 1005.4
20190425104320 58 314 7.0 10.0 0.00 0.00 0.00 57 1005.4
20190425103420 59 323 7.0 11.0 0.00 0.00 0.00 56 1005.3
20190425102520 59 320 7.0 11.0 0.00 0.00 0.00 56 1005.1
20190425101620 58 318 6.0 9.0 0.00 0.00 0.00 58 1005.1
20190425100720 57 307 3.0 8.0 0.00 0.00 0.00 65 1005.0
20190425095820 57 321 2.0 5.0 0.00 0.00 0.00 70 1004.9
20190425094920 58 295 3.0 7.0 0.00 0.00 0.00 69 1005.0
20190425094028 58 268 1.0 6.0 0.00 0.00 0.00 66 1004.8
20190425093120 58 222 1.0 4.0 0.00 0.00 0.00 67 1004.7
20190425092336 58 219 1.0 4.0 0.00 0.00 0.00 69 1004.7
20190425091320 57 219 0.0 2.0 0.00 0.00 0.00 71 1004.7
20190425090420 57 218 0.0 1.0 0.00 0.00 0.00 72 1004.6
20190425085520 57 219 0.0 2.0 0.00 0.00 0.00 72 1004.5
20190425084620 58 216 1.0 3.0 0.00 0.00 0.00 72 1004.5
20190425083721 58 199 0.0 4.0 0.00 0.00 0.00 70 1004.3
20190425082819 58 199 0.0 3.0 0.00 0.00 0.00 70 1004.1
20190425081919 58 195 1.0 5.0 0.00 0.00 0.00 68 1004.1
20190425081019 59 292 1.0 4.0 0.00 0.00 0.00 66 1004.1
20190425080119 60 335 1.0 3.0 0.00 0.00 0.00 62 1003.9
20190425075219 60 335 2.0 3.0 0.00 0.00 0.00 60 1003.7
20190425074319 60 336 2.0 4.0 0.00 0.00 0.00 62 1003.6
20190425073420 60 336 1.0 3.0 0.00 0.00 0.00 62 1003.4
20190425072519 60 337 5.0 6.0 0.00 0.00 0.00 62 1003.4
20190425071619 60 337 4.0 9.0 0.00 0.00 0.00 63 1003.4
20190425070719 60 332 7.0 9.0 0.00 0.00 0.00 64 1003.4
20190425065821 60 350 6.0 11.0 0.00 0.00 0.00 65 1003.2
20190425064919 60 346 3.0 5.0 0.00 0.00 0.00 65 1003.0
20190425064019 60 321 3.0 4.0 0.00 0.00 0.00 69 1003.1
20190425063120 60 319 2.0 5.0 0.00 0.00 0.00 69 1003.2
20190425062219 60 318 2.0 4.0 0.00 0.00 0.00 71 1003.3
20190425061319 60 317 4.0 6.0 0.00 0.00 0.00 71 1003.4
20190425060419 60 323 4.0 6.0 0.00 0.00 0.00 72 1003.5
20190425055519 59 321 4.0 6.0 0.00 0.00 0.00 74 1003.6
20190425054619 59 329 4.0 6.0 0.00 0.00 0.00 74 1003.5
20190425053719 59 120 4.0 5.0 0.00 0.00 0.00 74 1003.4
20190425052819 59 120 3.0 5.0 0.00 0.00 0.00 75 1003.4
20190425051919 59 120 3.0 5.0 0.00 0.00 0.00 75 1003.4
20190425051019 59 120 4.0 5.0 0.00 0.00 0.00 75 1003.4
20190425050119 59 120 3.0 5.0 0.00 0.00 0.00 76 1003.4
20190425045219 58 119 1.0 5.0 0.00 0.00 0.00 77 1003.4
20190425044319 58 120 0.0 5.0 0.00 0.00 0.00 77 1003.3
20190425043419 58 0 0.0 0.0 0.00 0.00 0.00 77 1003.2
20190425042519 58 0 0.0 0.0 0.00 0.00 0.00 76 1003.0
20190425041619 58 0 0.0 0.0 0.00 0.00 0.00 77 1003.1
20190425040719 58 0 0.0 0.0 0.00 0.00 0.00 77 1003.0
20190425035819 59 0 0.0 0.0 0.00 0.00 0.00 76 1002.7
20190425034919 60 0 0.0 0.0 0.00 0.00 0.00 75 1002.7
20190425034019 59 0 0.0 0.0 0.00 0.00 0.00 75 1002.8
20190425033119 59 0 0.0 0.0 0.00 0.00 0.00 75 1002.9
20190425032218 60 0 0.0 0.0 0.00 0.00 0.00 73 1002.7
20190425031319 60 0 0.0 0.0 0.00 0.00 0.00 73 1002.7
20190425030418 60 0 0.0 0.0 0.00 0.00 0.00 72 1002.5
20190425025518 61 0 0.0 0.0 0.00 0.00 0.00 71 1002.5
20190425024619 62 0 0.0 0.0 0.00 0.00 0.00 70 1002.5
20190425023718 62 118 0.0 2.0 0.00 0.00 0.00 70 1002.5
20190425022818 62 121 1.0 4.0 0.00 0.00 0.00 69 1002.3
20190425021918 62 131 2.0 5.0 0.00 0.00 0.00 69 1002.3
20190425021018 62 124 1.0 4.0 0.00 0.00 0.00 68 1002.3
20190425020118 63 116 2.0 4.0 0.00 0.00 0.00 66 1002.2
20190425015218 64 86 1.0 3.0 0.00 0.00 0.00 64 1002.1
20190425014318 64 49 3.0 7.0 0.00 0.00 0.00 63 1002.5
20190425013418 66 44 3.0 5.0 0.00 0.00 0.00 60 1002.2
20190425012518 66 13 4.0 8.0 0.00 0.00 0.00 59 1002.3
20190425011618 67 328 8.0 12.0 0.00 0.00 0.00 57 1002.4
20190425010718 67 300 5.0 12.0 0.00 0.00 0.00 56 1002.6
20190425005818 68 260 5.0 13.0 0.00 0.00 0.00 56 1002.6
20190425004918 68 265 6.0 14.0 0.00 0.00 0.00 54 1002.7
20190425004018 69 266 5.0 14.0 0.00 0.00 0.00 50 1002.8
20190425003118 70 232 2.0 7.0 0.00 0.00 0.00 47 1001.8
20190425002218 70 225 0.0 5.0 0.00 0.00 0.00 46 1001.6
20190425001318 71 217 2.0 7.0 0.00 0.00 0.00 44 1001.4
20190425000418 71 202 1.0 5.0 0.00 0.00 0.00 43 1001.3
20190424235518 71 214 2.0 10.0 0.00 0.00 0.00 44 1001.5
20190424234618 72 212 5.0 11.0 0.00 0.00 0.00 43 1001.6
20190424233718 72 204 3.0 8.0 0.00 0.00 0.00 43 1001.7
20190424232818 73 211 4.0 10.0 0.00 0.00 0.00 42 1001.7
20190424231918 74 212 5.0 13.0 0.00 0.00 0.00 40 1001.8
20190424231018 74 216 6.0 14.0 0.00 0.00 0.00 39 1001.8
20190424230118 74 210 5.0 12.0 0.00 0.00 0.00 40 1001.9
20190424225218 73 224 5.0 11.0 0.00 0.00 0.00 41 1002.2
20190424224318 73 226 5.0 13.0 0.00 0.00 0.00 41 1002.2
20190424223417 73 223 4.0 11.0 0.00 0.00 0.00 41 1002.2
20190424222518 73 224 6.0 11.0 0.00 0.00 0.00 41 1002.3
20190424221617 73 229 6.0 16.0 0.00 0.00 0.00 42 1002.3
20190424220717 72 226 7.0 16.0 0.00 0.00 0.00 41 1002.3
20190424215817 72 226 6.0 15.0 0.00 0.00 0.00 43 1002.5
20190424214918 72 239 6.0 13.0 0.00 0.00 0.00 43 1002.5
20190424214017 72 232 6.0 18.0 0.00 0.00 0.00 42 1002.7
20190424213117 71 228 5.0 13.0 0.00 0.00 0.00 45 1002.8
20190424212217 71 229 8.0 17.0 0.00 0.00 0.00 43 1002.8
20190424211317 71 226 7.0 15.0 0.00 0.00 0.00 42 1002.9
20190424210417 71 216 8.0 15.0 0.00 0.00 0.00 44 1003.0
20190424205517 71 223 8.0 19.0 0.00 0.00 0.00 43 1003.3
20190424204617 70 222 8.0 21.0 0.00 0.00 0.00 45 1003.4
20190424203717 71 220 8.0 17.0 0.00 0.00 0.00 43 1003.5
20190424202817 70 226 8.0 15.0 0.00 0.00 0.00 44 1003.7
20190424201917 70 225 8.0 17.0 0.00 0.00 0.00 44 1003.8
20190424201017 69 219 9.0 21.0 0.00 0.00 0.00 45 1004.0
20190424200117 69 229 8.0 16.0 0.00 0.00 0.00 45 1004.1
20190424195217 68 224 10.0 17.0 0.00 0.00 0.00 45 1004.2
20190424194317 68 222 10.0 17.0 0.00 0.00 0.00 46 1004.2
20190424193417 68 218 9.0 16.0 0.00 0.00 0.00 45 1004.4
20190424192517 68 220 10.0 18.0 0.00 0.00 0.00 46 1004.5
20190424191617 67 226 10.0 22.0 0.00 0.00 0.00 46 1004.6
20190424190717 67 223 10.0 21.0 0.00 0.00 0.00 46 1004.7
20190424185817 67 218 8.0 18.0 0.00 0.00 0.00 49 1004.7
20190424184917 66 215 10.0 19.0 0.00 0.00 0.00 50 1004.7
20190424184017 66 213 10.0 19.0 0.00 0.00 0.00 50 1004.8
20190424183117 65 217 9.0 19.0 0.00 0.00 0.00 52 1005.0
20190424182217 64 210 10.0 20.0 0.00 0.00 0.00 53 1005.3
20190424181317 64 214 9.0 22.0 0.00 0.00 0.00 53 1005.3
20190424180417 64 211 8.0 22.0 0.00 0.00 0.00 53 1005.5
20190424175517 63 214 9.0 21.0 0.00 0.00 0.00 55 1005.6
20190424174617 63 213 9.0 18.0 0.00 0.00 0.00 55 1005.7
20190424173716 62 204 7.0 18.0 0.00 0.00 0.00 56 1005.7
20190424172816 62 202 8.0 16.0 0.00 0.00 0.00 58 1005.6
20190424171916 61 201 8.0 14.0 0.00 0.00 0.00 57 1005.9
20190424171017 61 208 7.0 15.0 0.00 0.00 0.00 55 1006.1
20190424170116 61 211 7.0 20.0 0.00 0.00 0.00 56 1006.2
20190424165217 61 213 9.0 21.0 0.00 0.00 0.00 54 1006.3
20190424164317 61 211 9.0 21.0 0.00 0.00 0.00 54 1006.4